Time;durP1;ratioP1;P1;durP2;ratioP2;P2;SDS_P1;SDS_P2;PMS_P1;PMS_P2;Temp;Humidity;BMP_temperature;BMP_pressure;BME280_temperature;BME280_humidity;BME280_pressure;Samples;Min_cycle;Max_cycle;Signal;HPM_P1;HPM_P2
2022/06/04 00:02:20;;;;;;;7.50;6.70;;;;;;;23.06;58.10;99847.13;5015882;28;20087;-82
2022/06/04 00:04:47;;;;;;;7.13;5.63;;;;;;;23.04;57.72;99854.63;4988400;28;20065;-83
2022/06/04 00:07:14;;;;;;;7.93;6.28;;;;;;;23.02;57.90;99856.72;4990093;28;20048;-84
2022/06/04 00:15:28;;;;;;;7.45;6.65;;;;;;;23.01;57.86;99867.78;4984959;28;20042;-84
2022/06/04 00:15:29;;;;;;;10.60;7.35;;;;;;;22.99;57.75;99859.88;4954633;28;20042;-85
2022/06/04 00:17:56;;;;;;;7.63;6.82;;;;;;;22.95;57.83;99853.22;4989232;28;20440;-85
2022/06/04 00:20:23;;;;;;;8.07;7.22;;;;;;;22.91;57.76;99852.81;5016912;28;20056;-85
2022/06/04 00:22:58;;;;;;;7.95;7.15;;;;;;;22.88;58.08;99850.53;4973407;28;20057;-85
2022/06/04 00:25:24;;;;;;;7.45;6.30;;;;;;;22.88;57.93;99860.53;4990599;28;20037;-85
2022/06/04 00:27:51;;;;;;;8.35;7.65;;;;;;;22.87;58.02;99861.56;4970597;28;20397;-85
2022/06/04 00:30:18;;;;;;;8.52;7.15;;;;;;;22.84;58.29;99862.81;5001704;28;20054;-85
2022/06/04 00:32:44;;;;;;;8.48;7.07;;;;;;;22.83;58.35;99871.19;4989058;28;20053;-85
2022/06/04 00:35:11;;;;;;;7.25;6.60;;;;;;;22.81;58.32;99878.69;4970710;28;20049;-84
2022/06/04 00:37:38;;;;;;;8.65;7.47;;;;;;;22.79;58.44;99873.47;4982021;28;20115;-84
2022/06/04 00:40:09;;;;;;;8.95;7.28;;;;;;;22.76;58.59;99869.31;4997830;28;20389;-85
2022/06/04 00:42:35;;;;;;;10.30;7.93;;;;;;;22.70;59.09;99872.88;4982632;28;20050;-85
2022/06/04 00:45:20;;;;;;;8.23;7.43;;;;;;;22.69;59.63;99876.63;5004786;28;20053;-85
2022/06/04 00:47:48;;;;;;;9.45;7.40;;;;;;;22.71;59.14;99879.94;4953501;28;20456;-84
2022/06/04 00:50:17;;;;;;;9.13;7.28;;;;;;;22.71;58.91;99877.25;4986578;28;20512;-85
2022/06/04 00:52:46;;;;;;;10.13;7.70;;;;;;;22.69;58.82;99876.63;4999014;28;20037;-85
2022/06/04 00:55:14;;;;;;;8.88;8.13;;;;;;;22.67;58.91;99875.19;4988097;28;20529;-85
2022/06/04 00:58:02;;;;;;;8.25;7.30;;;;;;;22.65;58.83;99877.28;4995529;28;20045;-85
2022/06/04 01:00:36;;;;;;;10.02;7.80;;;;;;;22.64;58.76;99881.84;4971796;28;20088;-85
2022/06/04 01:03:06;;;;;;;7.85;7.05;;;;;;;22.64;58.62;99895.38;4957347;28;20495;-85
2022/06/04 01:05:57;;;;;;;8.25;7.28;;;;;;;22.63;58.72;99887.50;4987278;28;20133;-85
2022/06/04 01:08:44;;;;;;;8.40;7.60;;;;;;;22.57;59.03;99880.22;4978873;28;20038;-83
2022/06/04 01:11:26;;;;;;;8.00;7.15;;;;;;;22.58;58.94;99881.88;5000812;28;20048;-85
2022/06/04 01:13:56;;;;;;;8.30;7.47;;;;;;;22.53;58.93;99877.09;4996013;28;20108;-85
2022/06/04 01:16:49;;;;;;;8.82;7.63;;;;;;;22.49;59.41;99874.00;4978580;28;20069;-85
2022/06/04 01:19:43;;;;;;;7.88;6.90;;;;;;;22.48;59.05;99874.22;4934988;28;20050;-86
2022/06/04 01:22:12;;;;;;;;;;;;;;;22.32;60.33;99864.69;4951738;28;20041;-85
2022/06/04 01:25:06;;;;;;;8.70;7.85;;;;;;;22.25;60.33;99861.16;5016685;28;19975;-85
2022/06/04 01:27:43;;;;;;;10.38;7.53;;;;;;;22.28;59.93;99875.06;4918714;28;20074;-86
2022/06/04 01:30:15;;;;;;;7.55;6.80;;;;;;;22.32;59.64;99862.81;4960777;28;20041;-85
2022/06/04 01:33:10;;;;;;;14.27;8.17;;;;;;;22.30;60.04;99864.06;4992582;28;20045;-86
2022/06/04 01:35:48;;;;;;;7.43;6.47;;;;;;;22.33;59.77;99875.28;4960678;28;22353;-85
2022/06/04 01:38:31;;;;;;;6.95;6.28;;;;;;;22.34;59.54;99881.53;4989530;28;20049;-86
2022/06/04 01:41:04;;;;;;;7.97;7.22;;;;;;;22.37;59.21;99886.53;4979691;28;20057;-86
2022/06/04 01:43:33;;;;;;;9.90;7.47;;;;;;;22.37;59.13;99886.53;4966655;28;20428;-86
2022/06/04 01:46:05;;;;;;;7.95;6.88;;;;;;;22.35;59.10;99877.78;5022369;28;20115;-86
2022/06/04 01:48:37;;;;;;;8.77;7.72;;;;;;;22.33;59.57;99874.44;5017089;28;20133;-85
2022/06/04 01:51:05;;;;;;;8.13;7.38;;;;;;;22.32;59.44;99873.63;4996093;28;20045;-87
2022/06/04 01:53:34;;;;;;;8.50;7.60;;;;;;;22.31;59.21;99877.38;5013902;28;20049;-87
2022/06/04 01:56:05;;;;;;;8.30;7.50;;;;;;;22.28;59.47;99877.78;4986408;28;20137;-87
2022/06/04 01:58:47;;;;;;;8.40;7.35;;;;;;;22.24;59.50;99879.25;4986902;28;20048;-87
2022/06/04 02:01:18;;;;;;;11.77;7.28;;;;;;;22.23;59.03;99877.59;4983794;28;20057;-87
2022/06/04 02:03:44;;;;;;;10.45;7.22;;;;;;;22.20;59.17;99872.59;5017207;28;20105;-87
2022/06/04 02:06:15;;;;;;;8.57;6.75;;;;;;;22.18;59.11;99871.94;5004572;28;20061;-87
2022/06/04 02:08:46;;;;;;;7.80;7.03;;;;;;;22.15;59.08;99872.38;5018652;28;20057;-87
2022/06/04 02:11:16;;;;;;;8.57;7.75;;;;;;;22.12;59.14;99875.50;4992750;28;20721;-86
2022/06/04 02:13:46;;;;;;;8.23;6.85;;;;;;;22.16;59.06;99878.59;4988501;28;20046;-85
2022/06/04 02:16:27;;;;;;;9.13;6.20;;;;;;;22.17;58.89;99874.88;4989473;28;20072;-86
2022/06/04 02:18:56;;;;;;;7.97;6.72;;;;;;;22.20;58.79;99879.88;4975559;28;20052;-86
2022/06/04 02:21:23;;;;;;;8.15;6.50;;;;;;;22.19;59.11;99880.91;4976840;28;20482;-86
2022/06/04 02:23:50;;;;;;;6.75;6.15;;;;;;;22.13;58.97;99879.84;4998470;28;20079;-86
2022/06/04 02:26:18;;;;;;;6.82;6.22;;;;;;;22.11;59.07;99876.56;4989085;28;20045;-86
2022/06/04 02:28:47;;;;;;;8.57;6.88;;;;;;;22.05;59.08;99874.69;4999773;28;20052;-86
2022/06/04 02:31:19;;;;;;;9.77;7.80;;;;;;;22.02;58.89;99873.22;4998261;28;20100;-86
2022/06/04 02:33:52;;;;;;;16.08;7.55;;;;;;;21.93;59.04;99865.53;4975943;28;20064;-86
2022/06/04 02:36:30;;;;;;;8.80;6.53;;;;;;;21.90;59.15;99869.47;5021112;28;20041;-85
2022/06/04 02:39:08;;;;;;;7.95;6.80;;;;;;;21.72;60.12;99862.00;4965287;28;20073;-85
2022/06/04 02:41:41;;;;;;;7.50;6.25;;;;;;;21.52;60.51;99861.97;4961233;28;20232;-85
2022/06/04 02:44:08;;;;;;;;;;;;;;;21.22;61.69;99856.94;4971638;28;20046;-86
2022/06/04 02:46:47;;;;;;;9.55;6.93;;;;;;;21.25;60.79;99856.53;4969091;28;19926;-86
2022/06/04 02:49:23;;;;;;;8.20;7.40;;;;;;;21.22;61.95;99862.34;4965391;28;20108;-85
2022/06/04 02:51:52;;;;;;;11.35;8.18;;;;;;;21.29;61.08;99859.63;4966067;28;20485;-85
2022/06/04 02:54:23;;;;;;;8.20;7.40;;;;;;;21.37;60.99;99858.59;4984055;28;20057;-85
2022/06/04 02:56:50;;;;;;;9.90;7.35;;;;;;;21.45;60.54;99856.59;4992954;28;20045;-85
2022/06/04 02:59:18;;;;;;;8.23;6.93;;;;;;;21.54;60.34;99864.50;5005206;28;20042;-85
2022/06/04 03:01:46;;;;;;;8.35;7.53;;;;;;;21.58;60.21;99863.06;4997714;28;20061;-86
2022/06/04 03:04:13;;;;;;;8.60;7.72;;;;;;;21.60;60.08;99861.81;5002877;28;20128;-86
2022/06/04 03:06:40;;;;;;;8.02;7.22;;;;;;;21.65;60.07;99863.88;5009199;28;20041;-83
2022/06/04 03:09:10;;;;;;;8.82;6.72;;;;;;;21.64;59.70;99859.50;5007120;28;20132;-83
2022/06/04 03:11:45;;;;;;;6.93;5.93;;;;;;;21.61;59.79;99859.94;4992287;28;20038;-83
2022/06/04 03:14:13;;;;;;;9.15;6.15;;;;;;;21.62;59.84;99864.28;4981388;28;20043;-85
2022/06/04 03:16:44;;;;;;;7.07;6.38;;;;;;;21.61;59.91;99873.44;4990605;28;20053;-86
2022/06/04 03:19:11;;;;;;;6.80;5.47;;;;;;;21.58;59.80;99877.38;4987570;28;20062;-86
2022/06/04 03:21:39;;;;;;;6.43;5.93;;;;;;;21.54;59.85;99867.19;4997771;28;20898;-85
2022/06/04 03:24:07;;;;;;;8.18;6.25;;;;;;;21.53;59.91;99870.94;4997009;28;20378;-85
2022/06/04 03:26:35;;;;;;;9.65;6.32;;;;;;;21.51;59.75;99873.00;5006589;28;20045;-85
2022/06/04 03:29:03;;;;;;;9.88;6.85;;;;;;;21.52;59.80;99864.69;5014597;28;20049;-85
2022/06/04 03:31:30;;;;;;;6.90;6.28;;;;;;;21.53;59.53;99857.44;5016975;28;20054;-85
2022/06/04 03:33:57;;;;;;;7.18;6.10;;;;;;;21.52;59.84;99859.28;4986431;28;20041;-85
2022/06/04 03:36:27;;;;;;;8.48;6.38;;;;;;;21.51;59.77;99854.09;4988450;28;20060;-86
2022/06/04 03:38:57;;;;;;;6.53;5.95;;;;;;;;;;5005469;28;20561;-86
2022/06/04 03:41:24;;;;;;;9.43;6.90;;;;;;;21.46;59.93;99863.66;5001598;28;20048;-86
2022/06/04 03:43:52;;;;;;;7.90;6.30;;;;;;;21.48;60.18;99873.44;4991442;28;20469;-86
2022/06/04 03:46:20;;;;;;;8.55;6.60;;;;;;;21.54;60.41;99870.72;5031194;28;20037;-86
2022/06/04 03:48:47;;;;;;;7.30;6.55;;;;;;;21.71;60.86;99868.47;4997483;28;20046;-85
2022/06/04 03:51:14;;;;;;;7.78;6.88;;;;;;;21.91;60.73;99879.28;5019809;28;20555;-85
2022/06/04 03:53:40;;;;;;;7.35;6.55;;;;;;;22.08;60.06;99871.53;5006568;28;20049;-85
2022/06/04 03:56:07;;;;;;;9.63;7.93;;;;;;;22.14;59.52;99876.13;5019039;28;20048;-85
2022/06/04 03:58:34;;;;;;;8.93;7.25;;;;;;;22.15;59.24;99875.06;5015103;28;20046;-85
2022/06/04 04:01:11;;;;;;;7.25;6.57;;;;;;;22.14;59.13;99883.41;5002478;28;20493;-86
2022/06/04 04:03:38;;;;;;;8.15;5.60;;;;;;;22.21;59.04;99893.22;4991144;28;20048;-83
2022/06/04 04:06:05;;;;;;;7.28;6.20;;;;;;;22.14;59.05;99892.34;5003498;28;20218;-83
2022/06/04 04:08:32;;;;;;;10.70;6.68;;;;;;;22.15;58.93;99891.31;5004969;28;20050;-86
2022/06/04 04:10:59;;;;;;;7.72;6.60;;;;;;;22.08;58.79;99896.75;5009128;28;20063;-86
2022/06/04 04:13:26;;;;;;;7.85;6.55;;;;;;;22.00;58.83;99893.41;4989593;28;20046;-85
2022/06/04 04:15:53;;;;;;;9.93;6.63;;;;;;;22.02;59.04;99905.66;5017736;28;20042;-86
2022/06/04 04:18:21;;;;;;;12.75;7.65;;;;;;;22.00;58.84;99890.69;5018106;28;20053;-86
2022/06/04 04:20:48;;;;;;;7.43;6.65;;;;;;;21.95;58.63;99888.59;4995983;28;20049;-86
2022/06/04 04:23:15;;;;;;;7.55;6.80;;;;;;;22.00;58.87;99891.53;4989061;28;20052;-85
2022/06/04 04:25:41;;;;;;;9.60;6.45;;;;;;;22.10;58.90;99891.94;5008312;28;20473;-85
2022/06/04 04:28:09;;;;;;;7.47;6.65;;;;;;;22.25;59.01;99902.56;5021459;28;20041;-85
2022/06/04 04:30:38;;;;;;;9.98;6.70;;;;;;;22.37;58.78;99900.06;5012690;28;20053;-85
2022/06/04 04:33:06;;;;;;;7.60;6.90;;;;;;;22.45;58.57;99896.28;5032586;28;20046;-85
2022/06/04 04:35:34;;;;;;;8.48;7.40;;;;;;;22.45;58.56;99893.59;4978960;28;20134;-85
2022/06/04 04:38:01;;;;;;;7.57;6.88;;;;;;;22.48;58.49;99907.50;5001585;28;20045;-85
2022/06/04 04:40:29;;;;;;;9.10;7.57;;;;;;;22.54;58.38;99895.00;4999058;28;20517;-85
2022/06/04 04:42:56;;;;;;;8.30;6.70;;;;;;;22.53;58.26;99894.16;5026843;28;20125;-86
2022/06/04 04:45:24;;;;;;;7.95;7.15;;;;;;;22.52;58.19;99906.06;5003307;28;20034;-86
2022/06/04 04:47:51;;;;;;;12.60;8.48;;;;;;;22.53;57.96;99907.69;5017375;28;20104;-86
2022/06/04 04:50:22;;;;;;;9.18;8.20;;;;;;;22.49;57.66;99902.91;5019929;28;20042;-85
2022/06/04 04:52:50;;;;;;;8.68;7.72;;;;;;;22.50;57.96;99904.59;4983380;28;20045;-86
2022/06/04 04:55:17;;;;;;;8.98;8.07;;;;;;;22.42;58.24;99904.84;4989230;28;20125;-87
2022/06/04 04:57:43;;;;;;;9.52;8.57;;;;;;;22.37;58.49;99905.47;4994569;28;20049;-86
2022/06/04 05:00:12;;;;;;;11.43;9.15;;;;;;;22.32;58.33;99905.25;5014347;28;20038;-87
2022/06/04 05:02:39;;;;;;;11.65;9.38;;;;;;;22.30;58.76;99907.34;4983454;28;20461;-87
2022/06/04 05:05:06;;;;;;;9.82;8.43;;;;;;;22.27;58.70;99911.28;5021648;28;20404;-87
2022/06/04 05:07:33;;;;;;;11.20;8.50;;;;;;;22.26;58.61;99908.78;4998438;28;20050;-86
2022/06/04 05:09:59;;;;;;;10.95;8.43;;;;;;;22.27;58.60;99916.72;4978152;28;20045;-87
2022/06/04 05:12:26;;;;;;;10.45;8.90;;;;;;;22.27;59.00;99915.88;4985624;28;20130;-86
2022/06/04 05:14:53;;;;;;;12.95;8.43;;;;;;;22.29;59.03;99924.63;4990864;28;20038;-87
2022/06/04 05:17:20;;;;;;;12.30;9.27;;;;;;;22.29;58.98;99921.91;4987540;28;20358;-87
2022/06/04 05:19:51;;;;;;;10.95;9.00;;;;;;;22.29;59.05;99917.34;5000772;28;20481;-84
2022/06/04 05:22:18;;;;;;;9.70;8.70;;;;;;;22.26;59.19;99906.94;5001242;28;20056;-82
2022/06/04 05:24:44;;;;;;;12.25;8.65;;;;;;;22.20;59.22;99904.22;4975013;28;20386;-85
2022/06/04 05:27:11;;;;;;;12.13;8.35;;;;;;;22.13;59.60;99904.19;5013403;28;20045;-85
2022/06/04 05:29:39;;;;;;;10.40;9.35;;;;;;;22.07;59.86;99907.75;4989095;28;20050;-83
2022/06/04 05:32:07;;;;;;;11.40;8.93;;;;;;;21.95;60.17;99904.84;4976914;28;20042;-82
2022/06/04 05:34:34;;;;;;;9.80;8.80;;;;;;;22.00;60.52;99913.16;4968333;28;20132;-87
2022/06/04 05:37:01;;;;;;;10.23;9.23;;;;;;;22.05;60.42;99913.34;5018157;28;20041;-86
2022/06/04 05:39:32;;;;;;;9.82;8.85;;;;;;;22.07;60.73;99913.97;4991371;28;20418;-88
2022/06/04 05:42:00;;;;;;;10.68;9.55;;;;;;;21.97;60.93;99923.56;4984851;28;20136;-85
2022/06/04 05:44:27;;;;;;;12.27;9.52;;;;;;;21.94;60.95;99919.41;4990711;28;20050;-87
2022/06/04 05:46:54;;;;;;;10.98;9.77;;;;;;;21.98;61.26;99926.06;4985973;28;20115;-87
2022/06/04 05:49:20;;;;;;;10.65;9.55;;;;;;;21.87;61.91;99924.78;4979992;28;20053;-85
2022/06/04 05:51:48;;;;;;;12.10;9.60;;;;;;;21.99;61.40;99937.72;4981946;28;20137;-87
2022/06/04 05:54:15;;;;;;;13.25;9.60;;;;;;;22.07;61.12;99938.31;4987289;28;20046;-87
2022/06/04 05:56:44;;;;;;;12.35;9.98;;;;;;;22.09;61.24;99951.66;4990267;28;20056;-87
2022/06/04 05:59:19;;;;;;;12.90;9.77;;;;;;;22.15;61.75;99949.97;5001989;28;20408;-88
2022/06/04 06:01:47;;;;;;;11.52;10.13;;;;;;;22.24;61.09;99949.59;4987157;28;20057;-83
2022/06/04 06:04:15;;;;;;;12.27;9.68;;;;;;;22.31;60.93;99942.31;4988962;28;20034;-83
2022/06/04 06:06:46;;;;;;;12.85;10.20;;;;;;;22.36;60.69;99954.34;5008410;28;20463;-83
2022/06/04 06:09:15;;;;;;;11.85;10.20;;;;;;;22.41;60.74;99954.56;4995068;28;20061;-83
2022/06/04 06:11:43;;;;;;;13.32;10.30;;;;;;;22.44;60.58;99952.28;5011990;28;20041;-87
2022/06/04 06:14:10;;;;;;;14.55;10.13;;;;;;;22.46;60.32;99958.28;5008161;28;20053;-87
2022/06/04 06:16:42;;;;;;;13.20;9.05;;;;;;;22.47;60.51;99961.84;4994441;28;20375;-86
2022/06/04 06:23:40;;;;;;;9.70;8.65;;;;;;;22.44;60.54;99970.38;4987855;28;20508;-87
2022/06/04 06:26:29;;;;;;;9.82;8.13;;;;;;;22.33;60.81;99969.97;5028768;28;22453;-80
2022/06/04 06:29:00;;;;;;;8.95;8.05;;;;;;;22.34;61.48;99978.94;4972488;28;20093;-80
2022/06/04 06:31:29;;;;;;;10.82;8.45;;;;;;;22.31;61.21;99977.47;4982252;28;20052;-80
2022/06/04 06:33:58;;;;;;;9.05;8.15;;;;;;;22.37;61.53;99983.91;4994158;28;20108;-80
2022/06/04 06:36:25;;;;;;;17.05;8.70;;;;;;;22.43;61.15;99984.94;4997898;28;20049;-80
2022/06/04 06:38:52;;;;;;;11.45;8.52;;;;;;;22.39;61.22;99995.38;5009598;28;20072;-80
2022/06/04 06:41:21;;;;;;;10.70;8.90;;;;;;;22.37;61.19;100000.16;5016074;28;20386;-80
2022/06/04 06:43:50;;;;;;;10.63;8.75;;;;;;;22.40;61.20;100001.59;4980170;28;20045;-80
2022/06/04 06:46:23;;;;;;;11.95;9.38;;;;;;;22.38;61.09;100004.50;4995148;28;20049;-80
2022/06/04 06:48:52;;;;;;;;;;;;;;;22.29;61.62;100003.91;4984600;28;20764;-80
2022/06/04 06:51:40;;;;;;;10.02;8.52;;;;;;;22.33;61.48;100004.31;5017293;28;20377;-80
2022/06/04 06:54:08;;;;;;;12.13;8.82;;;;;;;22.34;61.37;100016.81;4959613;28;20067;-80
2022/06/04 06:56:39;;;;;;;9.68;8.57;;;;;;;22.36;61.41;100022.00;4996322;28;20049;-80
2022/06/04 06:59:07;;;;;;;11.48;8.30;;;;;;;22.37;61.56;100026.38;5010809;28;20053;-80
2022/06/04 07:01:37;;;;;;;9.50;7.53;;;;;;;22.39;61.49;100033.25;5022845;28;20124;-80
2022/06/04 07:04:05;;;;;;;8.45;6.78;;;;;;;22.44;61.56;100038.00;5026492;28;20042;-80
2022/06/04 07:06:38;;;;;;;9.77;7.97;;;;;;;22.44;61.77;100041.56;5006015;28;20494;-80
2022/06/04 07:09:14;;;;;;;9.18;7.97;;;;;;;22.47;61.49;100051.97;5007069;28;20047;-80
2022/06/04 07:11:42;;;;;;;10.18;8.30;;;;;;;22.48;61.77;100063.63;5019917;28;20057;-80
2022/06/04 07:14:09;;;;;;;10.10;8.30;;;;;;;22.49;61.88;100058.03;5021425;28;20048;-80
2022/06/04 07:16:36;;;;;;;9.20;7.68;;;;;;;22.51;61.77;100069.44;4998493;28;20169;-79
2022/06/04 07:19:03;;;;;;;8.40;7.45;;;;;;;22.52;62.02;100062.19;5019141;28;20497;-76
2022/06/04 07:21:30;;;;;;;7.70;6.90;;;;;;;22.51;61.90;100066.75;5041317;28;20406;-74
2022/06/04 07:23:57;;;;;;;8.90;7.35;;;;;;;22.51;61.96;100057.78;5024361;28;20049;-76
2022/06/04 07:26:25;;;;;;;8.73;7.72;;;;;;;22.52;61.90;100060.31;5023235;28;20049;-77
2022/06/04 07:28:53;;;;;;;9.02;7.60;;;;;;;22.51;61.70;100052.38;5021339;28;20049;-77
2022/06/04 07:31:20;;;;;;;8.50;7.60;;;;;;;22.50;62.13;100050.72;5014301;28;20049;-77
2022/06/04 07:33:48;;;;;;;10.70;8.80;;;;;;;22.48;62.52;100044.69;5008411;28;20125;-77
2022/06/04 07:36:19;;;;;;;8.57;7.70;;;;;;;22.46;62.66;100036.75;5027047;28;20038;-78
2022/06/04 07:38:46;;;;;;;10.82;8.27;;;;;;;22.43;62.78;100034.47;4984076;28;20046;-78
2022/06/04 07:41:34;;;;;;;9.23;8.07;;;;;;;22.40;63.50;100023.25;5014390;28;20125;-83
2022/06/04 07:44:02;;;;;;;17.50;8.80;;;;;;;22.43;63.20;100020.13;4971570;28;20040;-79
2022/06/04 07:46:31;;;;;;;13.23;11.45;;;;;;;22.43;63.34;100022.84;5018495;28;20468;-81
2022/06/04 07:49:00;;;;;;;13.52;10.48;;;;;;;22.36;63.49;100020.13;5007523;28;20832;-78
2022/06/04 07:51:28;;;;;;;10.98;9.02;;;;;;;22.30;63.31;100016.38;5008321;28;20108;-77
2022/06/04 07:53:55;;;;;;;10.20;8.80;;;;;;;22.31;63.49;100007.25;5012080;28;20049;-77
2022/06/04 07:56:23;;;;;;;11.98;9.52;;;;;;;22.17;63.81;100004.69;5018063;28;20045;-81
2022/06/04 07:58:50;;;;;;;10.63;8.60;;;;;;;22.00;64.47;100004.25;5010323;28;20075;-82
2022/06/04 08:01:20;;;;;;;10.60;9.55;;;;;;;21.79;65.82;99998.00;5013793;28;20416;-81
2022/06/04 08:03:48;;;;;;;15.63;10.13;;;;;;;21.73;65.41;100006.06;4985922;28;20061;-81
2022/06/04 08:06:17;;;;;;;12.85;10.50;;;;;;;21.81;65.10;99997.78;4978319;28;20050;-81
2022/06/04 08:08:47;;;;;;;13.00;10.82;;;;;;;21.64;65.92;99987.34;5001731;28;20076;-80
2022/06/04 08:11:32;;;;;;;12.65;11.35;;;;;;;21.62;66.13;99989.41;5018037;28;20041;-81
2022/06/04 08:18:14;;;;;;;16.17;12.25;;;;;;;21.48;67.27;99989.59;4992247;28;20037;-81
2022/06/04 08:20:42;;;;;;;13.07;11.70;;;;;;;21.50;67.40;99987.50;4987405;28;22560;-81
2022/06/04 08:23:09;;;;;;;15.25;13.23;;;;;;;21.31;67.79;99970.19;5007826;28;20487;-80
2022/06/04 08:26:30;;;;;;;16.02;12.52;;;;;;;21.37;67.80;99975.63;5003772;28;20077;-80
2022/06/04 08:28:57;;;;;;;18.88;12.57;;;;;;;21.41;67.84;99978.78;4945000;28;20038;-79
2022/06/04 08:31:24;;;;;;;15.45;12.52;;;;;;;21.50;67.25;99991.06;4974005;28;20049;-81
2022/06/04 08:33:51;;;;;;;13.25;11.85;;;;;;;21.49;67.77;100000.19;4987061;28;20050;-81
2022/06/04 08:36:19;;;;;;;17.85;12.82;;;;;;;21.51;67.05;100005.41;5008580;28;20084;-80
2022/06/04 08:38:46;;;;;;;15.35;12.15;;;;;;;21.65;66.72;100010.66;4992990;28;20057;-80
2022/06/04 08:41:22;;;;;;;15.57;12.02;;;;;;;21.64;66.89;100019.78;5015306;28;20045;-80
2022/06/04 08:44:00;;;;;;;13.32;11.93;;;;;;;21.66;66.72;100028.53;5022397;28;20468;-80
2022/06/04 08:46:32;;;;;;;14.98;11.95;;;;;;;21.70;65.80;100030.81;5020308;28;20087;-81
2022/06/04 08:49:13;;;;;;;14.45;12.75;;;;;;;21.57;66.70;100034.31;5015990;28;20038;-81
2022/06/04 08:51:41;;;;;;;14.20;11.02;;;;;;;21.60;66.10;100034.75;4999850;28;20045;-81
2022/06/04 09:00:05;;;;;;;13.32;11.25;;;;;;;21.71;66.30;100036.03;4957923;28;20049;-82
2022/06/04 09:03:19;;;;;;;12.23;10.82;;;;;;;21.76;66.37;100040.81;4953865;28;20053;-82
2022/06/04 09:06:08;;;;;;;12.77;11.45;;;;;;;21.83;66.11;100041.66;4943598;28;20050;-82
2022/06/04 09:08:44;;;;;;;14.60;10.75;;;;;;;21.92;65.62;100045.84;4978255;28;20045;-80
2022/06/04 09:11:20;;;;;;;13.63;10.00;;;;;;;21.99;65.44;100045.88;4990715;28;20046;-80
2022/06/04 09:14:02;;;;;;;12.40;9.80;;;;;;;22.09;65.51;100046.31;4996167;28;20096;-80
2022/06/04 09:16:33;;;;;;;12.48;9.48;;;;;;;22.11;65.35;100045.06;4983552;28;20049;-80
2022/06/04 09:19:02;;;;;;;11.85;10.40;;;;;;;22.20;65.40;100053.81;5011660;28;20054;-80
2022/06/04 09:21:34;;;;;;;11.65;9.88;;;;;;;22.23;65.40;100047.16;4980640;28;20482;-80
2022/06/04 09:24:01;;;;;;;10.68;9.30;;;;;;;22.29;65.11;100057.19;4984091;28;20492;-80
2022/06/04 09:26:33;;;;;;;11.38;9.90;;;;;;;22.32;64.94;100045.94;5019067;28;20524;-80
2022/06/04 09:29:03;;;;;;;11.85;10.65;;;;;;;22.40;65.19;100058.44;4978721;28;20061;-80
2022/06/04 09:32:03;;;;;;;10.90;9.60;;;;;;;22.43;65.45;100056.13;5024217;28;20052;-80
2022/06/04 09:34:35;;;;;;;12.25;10.00;;;;;;;22.41;65.16;100062.78;4934799;28;20045;-81
2022/06/04 09:37:04;;;;;;;13.25;11.35;;;;;;;22.43;65.36;100066.13;4997270;28;20050;-81
2022/06/04 09:39:34;;;;;;;14.40;11.30;;;;;;;22.43;65.43;100069.66;4997384;28;20053;-81
2022/06/04 09:42:15;;;;;;;11.88;10.68;;;;;;;22.47;65.38;100072.81;4995322;28;20041;-80
2022/06/04 09:45:13;;;;;;;13.80;11.50;;;;;;;22.47;65.27;100072.81;4990531;28;20046;-81
2022/06/04 09:47:41;;;;;;;14.93;11.65;;;;;;;22.52;65.01;100084.66;4954853;28;20495;-80
2022/06/04 09:50:30;;;;;;;12.93;11.63;;;;;;;22.46;65.11;100090.06;4999171;28;20087;-80
2022/06/04 09:53:11;;;;;;;13.82;10.82;;;;;;;22.51;65.34;100084.84;4995356;28;20374;-81
2022/06/04 09:55:44;;;;;;;11.80;10.32;;;;;;;22.41;64.97;100097.97;5011965;28;20065;-82
2022/06/04 09:58:21;;;;;;;14.63;11.15;;;;;;;22.45;65.06;100096.53;5004982;28;20048;-82
2022/06/04 10:00:56;;;;;;;14.00;11.30;;;;;;;22.46;64.56;100093.59;4952512;28;20104;-83
2022/06/04 10:03:23;;;;;;;12.70;10.75;;;;;;;22.51;64.81;100106.50;4993259;28;20132;-84
2022/06/04 10:06:01;;;;;;;15.32;12.63;;;;;;;22.54;64.77;100096.13;4999552;28;20543;-82
2022/06/04 10:08:29;;;;;;;14.07;10.60;;;;;;;22.54;64.92;100106.09;4977393;28;20072;-82
2022/06/04 10:11:07;;;;;;;13.05;11.10;;;;;;;22.56;65.18;100111.31;4997325;28;20050;-81
2022/06/04 10:13:43;;;;;;;12.02;10.82;;;;;;;22.60;65.30;100104.44;4979522;28;20497;-80
2022/06/04 10:24:58;;;;;;;13.43;10.88;;;;;;;22.60;65.21;100117.97;4978313;28;20033;-76
2022/06/04 10:27:37;;;;;;;12.73;10.95;;;;;;;22.60;65.21;100121.50;4978209;28;20045;-77
2022/06/04 10:30:18;;;;;;;13.77;11.70;;;;;;;22.60;65.68;100110.69;5005943;28;20079;-77
2022/06/04 10:32:51;;;;;;;13.02;11.70;;;;;;;22.66;65.43;100112.53;4991688;28;20064;-77
2022/06/04 10:35:44;;;;;;;13.38;11.98;;;;;;;22.61;65.50;100116.94;5000835;28;20042;-77
2022/06/04 10:38:32;;;;;;;12.45;11.15;;;;;;;22.59;65.59;100113.59;4997208;28;20501;-80
2022/06/04 10:41:22;;;;;;;11.55;10.35;;;;;;;22.60;65.75;100115.28;4992084;28;20552;-81
2022/06/04 10:44:11;;;;;;;12.98;11.68;;;;;;;22.64;65.83;100116.50;4944932;28;20100;-80
2022/06/04 10:46:57;;;;;;;10.85;9.70;;;;;;;22.63;65.89;100112.97;4982632;28;20045;-79
2022/06/04 10:49:43;;;;;;;11.77;10.57;;;;;;;22.67;65.71;100116.06;4997907;28;20045;-80
2022/06/04 10:52:29;;;;;;;13.45;12.05;;;;;;;22.75;65.54;100113.19;4974768;28;20041;-82
2022/06/04 10:55:18;;;;;;;13.75;12.23;;;;;;;22.73;65.63;100113.38;4983671;28;20099;-83
2022/06/04 10:58:12;;;;;;;13.20;10.50;;;;;;;22.73;66.12;100117.97;4982838;28;20049;-83
2022/06/04 11:00:44;;;;;;;14.38;12.43;;;;;;;22.82;66.00;100121.28;4955993;28;20088;-85
2022/06/04 11:03:18;;;;;;;13.50;10.80;;;;;;;22.86;65.88;100120.66;4999030;28;20490;-84
2022/06/04 11:05:55;;;;;;;14.25;10.95;;;;;;;22.85;66.52;100119.03;4967677;28;20046;-85
2022/06/04 11:08:31;;;;;;;12.57;11.13;;;;;;;22.88;66.91;100120.47;4988720;28;20053;-81
2022/06/04 11:11:05;;;;;;;11.68;10.20;;;;;;;22.88;66.59;100121.31;5005015;28;20102;-80
2022/06/04 11:13:40;;;;;;;11.57;10.40;;;;;;;22.88;66.61;100113.19;4967641;28;20074;-81
2022/06/04 11:16:14;;;;;;;12.73;11.40;;;;;;;22.89;66.89;100105.88;4969748;28;20046;-81
2022/06/04 11:18:52;;;;;;;12.25;10.98;;;;;;;22.95;66.58;100105.06;4967381;28;20080;-81
2022/06/04 11:21:26;;;;;;;13.93;11.10;;;;;;;22.94;66.67;100104.19;4965277;28;20853;-81
2022/06/04 11:24:08;;;;;;;10.27;9.25;;;;;;;22.98;66.57;100101.97;4972991;28;20049;-81
2022/06/04 11:26:41;;;;;;;11.23;10.03;;;;;;;23.00;66.85;100105.28;4968655;28;20042;-80
2022/06/04 11:29:11;;;;;;;13.70;11.65;;;;;;;23.04;66.43;100103.81;4996780;28;20511;-80
2022/06/04 11:32:10;;;;;;;12.75;11.38;;;;;;;22.98;66.49;100110.09;5004505;28;20401;-83
2022/06/04 11:35:01;;;;;;;14.93;11.35;;;;;;;23.01;65.92;100101.53;4987597;28;20041;-82
2022/06/04 11:37:37;;;;;;;12.90;10.50;;;;;;;23.07;65.88;100107.97;4950960;28;20585;-80
2022/06/04 11:40:24;;;;;;;12.80;10.93;;;;;;;23.09;66.05;100119.44;4963975;28;20054;-78
2022/06/04 11:43:02;;;;;;;13.57;12.18;;;;;;;23.07;65.21;100118.81;4963042;28;20046;-80
2022/06/04 11:45:54;;;;;;;13.38;11.90;;;;;;;23.06;65.67;100120.69;4984538;28;20140;-80
2022/06/04 11:48:52;;;;;;;11.45;10.13;;;;;;;23.02;65.21;100126.72;4953134;28;20042;-81
2022/06/04 11:51:43;;;;;;;11.95;10.85;;;;;;;23.10;65.10;100129.22;4921235;28;20092;-81
2022/06/04 11:54:25;;;;;;;13.48;11.63;;;;;;;23.08;65.06;100126.72;4979758;28;20049;-80
2022/06/04 11:57:13;;;;;;;12.50;10.70;;;;;;;23.09;64.94;100128.38;4930887;28;20041;-80
2022/06/04 12:00:04;;;;;;;13.05;11.65;;;;;;;23.10;65.26;100119.25;4959108;28;20057;-81
2022/06/04 12:02:45;;;;;;;14.27;11.90;;;;;;;23.09;64.60;100119.44;4928510;28;20559;-80
2022/06/04 12:05:53;;;;;;;13.50;10.55;;;;;;;23.05;64.61;100121.75;4960419;28;20065;-81
2022/06/04 12:08:23;;;;;;;13.27;11.98;;;;;;;23.16;64.43;100112.97;4898315;28;20041;-81
2022/06/04 12:11:02;;;;;;;12.77;11.50;;;;;;;23.13;63.76;100107.16;4992764;28;20037;-80
2022/06/04 12:13:44;;;;;;;11.75;10.55;;;;;;;23.09;63.93;100112.13;4974283;28;20046;-81
2022/06/04 12:16:19;;;;;;;12.10;10.90;;;;;;;23.10;64.16;100119.25;4973312;28;20056;-81
2022/06/04 12:19:05;;;;;;;16.80;11.65;;;;;;;23.11;63.94;100109.22;5003065;28;20091;-80